sensor_id;sensor_type;location;lat;lon;timestamp;P1;durP1;ratioP1;P2;durP2;ratioP2
53714;SDS011;39608;55.630;37.864;2023-03-17T00:02:44;8.88;;;3.08;;
53714;SDS011;39608;55.630;37.864;2023-03-17T00:07:48;3.95;;;2.95;;
53714;SDS011;39608;55.630;37.864;2023-03-17T00:12:52;8.20;;;3.10;;
53714;SDS011;39608;55.630;37.864;2023-03-17T00:17:55;4.38;;;3.05;;
53714;SDS011;39608;55.630;37.864;2023-03-17T00:22:59;7.47;;;3.17;;
53714;SDS011;39608;55.630;37.864;2023-03-17T00:28:04;5.53;;;3.00;;
53714;SDS011;39608;55.630;37.864;2023-03-17T00:33:09;4.22;;;2.90;;
53714;SDS011;39608;55.630;37.864;2023-03-17T00:38:15;4.90;;;2.95;;
53714;SDS011;39608;55.630;37.864;2023-03-17T00:43:18;5.05;;;2.90;;
53714;SDS011;39608;55.630;37.864;2023-03-17T00:48:20;5.75;;;2.78;;
53714;SDS011;39608;55.630;37.864;2023-03-17T00:53:24;6.45;;;3.33;;
53714;SDS011;39608;55.630;37.864;2023-03-17T00:58:27;4.60;;;2.67;;
53714;SDS011;39608;55.630;37.864;2023-03-17T01:03:30;6.28;;;3.25;;
53714;SDS011;39608;55.630;37.864;2023-03-17T01:08:35;6.97;;;3.35;;
53714;SDS011;39608;55.630;37.864;2023-03-17T01:13:37;12.48;;;3.22;;
53714;SDS011;39608;55.630;37.864;2023-03-17T01:18:39;7.63;;;3.45;;
53714;SDS011;39608;55.630;37.864;2023-03-17T01:23:43;5.70;;;3.65;;
53714;SDS011;39608;55.630;37.864;2023-03-17T01:28:45;5.25;;;3.50;;
53714;SDS011;39608;55.630;37.864;2023-03-17T01:33:47;6.53;;;2.85;;
53714;SDS011;39608;55.630;37.864;2023-03-17T01:38:55;4.80;;;3.10;;
53714;SDS011;39608;55.630;37.864;2023-03-17T01:44:13;5.80;;;2.72;;
53714;SDS011;39608;55.630;37.864;2023-03-17T01:49:21;6.10;;;3.42;;
53714;SDS011;39608;55.630;37.864;2023-03-17T01:54:31;6.53;;;3.22;;
53714;SDS011;39608;55.630;37.864;2023-03-17T01:59:38;5.78;;;2.97;;
53714;SDS011;39608;55.630;37.864;2023-03-17T02:09:47;5.25;;;2.55;;
53714;SDS011;39608;55.630;37.864;2023-03-17T02:14:50;6.63;;;2.70;;
53714;SDS011;39608;55.630;37.864;2023-03-17T02:26:05;3.30;;;2.50;;
53714;SDS011;39608;55.630;37.864;2023-03-17T02:31:07;5.07;;;2.33;;
53714;SDS011;39608;55.630;37.864;2023-03-17T02:36:11;2.60;;;1.80;;
53714;SDS011;39608;55.630;37.864;2023-03-17T02:41:15;2.88;;;1.98;;
53714;SDS011;39608;55.630;37.864;2023-03-17T02:46:17;4.18;;;2.17;;
53714;SDS011;39608;55.630;37.864;2023-03-17T02:51:19;4.43;;;2.17;;
53714;SDS011;39608;55.630;37.864;2023-03-17T02:56:22;6.78;;;2.63;;
53714;SDS011;39608;55.630;37.864;2023-03-17T03:01:24;3.13;;;2.08;;
53714;SDS011;39608;55.630;37.864;2023-03-17T03:06:26;2.90;;;2.00;;
53714;SDS011;39608;55.630;37.864;2023-03-17T03:11:31;2.95;;;1.92;;
53714;SDS011;39608;55.630;37.864;2023-03-17T03:16:33;4.63;;;2.30;;
53714;SDS011;39608;55.630;37.864;2023-03-17T03:21:35;3.03;;;2.03;;
53714;SDS011;39608;55.630;37.864;2023-03-17T03:26:38;5.70;;;2.25;;
53714;SDS011;39608;55.630;37.864;2023-03-17T03:31:40;3.17;;;2.30;;
53714;SDS011;39608;55.630;37.864;2023-03-17T03:36:42;4.47;;;2.15;;
53714;SDS011;39608;55.630;37.864;2023-03-17T03:41:49;6.07;;;1.80;;
53714;SDS011;39608;55.630;37.864;2023-03-17T03:46:51;2.25;;;1.73;;
53714;SDS011;39608;55.630;37.864;2023-03-17T03:51:53;2.72;;;1.75;;
53714;SDS011;39608;55.630;37.864;2023-03-17T03:56:56;7.13;;;1.95;;
53714;SDS011;39608;55.630;37.864;2023-03-17T04:01:58;5.93;;;1.92;;
53714;SDS011;39608;55.630;37.864;2023-03-17T04:07:00;2.33;;;1.60;;
53714;SDS011;39608;55.630;37.864;2023-03-17T04:12:04;2.38;;;1.52;;
53714;SDS011;39608;55.630;37.864;2023-03-17T04:17:07;3.90;;;1.55;;
53714;SDS011;39608;55.630;37.864;2023-03-17T04:22:10;4.03;;;1.35;;
53714;SDS011;39608;55.630;37.864;2023-03-17T04:27:14;2.80;;;1.65;;
53714;SDS011;39608;55.630;37.864;2023-03-17T04:32:16;3.22;;;1.42;;
53714;SDS011;39608;55.630;37.864;2023-03-17T04:37:19;4.63;;;1.48;;
53714;SDS011;39608;55.630;37.864;2023-03-17T04:42:22;2.05;;;1.40;;
53714;SDS011;39608;55.630;37.864;2023-03-17T04:47:24;2.55;;;1.20;;
53714;SDS011;39608;55.630;37.864;2023-03-17T04:52:26;4.55;;;1.67;;
53714;SDS011;39608;55.630;37.864;2023-03-17T04:57:29;3.70;;;1.25;;
53714;SDS011;39608;55.630;37.864;2023-03-17T05:02:32;1.95;;;1.02;;
53714;SDS011;39608;55.630;37.864;2023-03-17T05:07:34;3.58;;;1.45;;
53714;SDS011;39608;55.630;37.864;2023-03-17T05:12:37;2.92;;;1.30;;
53714;SDS011;39608;55.630;37.864;2023-03-17T05:17:39;2.45;;;1.15;;
53714;SDS011;39608;55.630;37.864;2023-03-17T05:22:41;0.95;;;0.93;;
53714;SDS011;39608;55.630;37.864;2023-03-17T05:27:45;2.60;;;1.10;;
53714;SDS011;39608;55.630;37.864;2023-03-17T05:32:47;5.40;;;1.30;;
53714;SDS011;39608;55.630;37.864;2023-03-17T05:37:49;1.58;;;0.80;;
53714;SDS011;39608;55.630;37.864;2023-03-17T05:42:53;2.80;;;1.25;;
53714;SDS011;39608;55.630;37.864;2023-03-17T05:47:55;2.13;;;1.15;;
53714;SDS011;39608;55.630;37.864;2023-03-17T05:52:57;4.70;;;1.17;;
53714;SDS011;39608;55.630;37.864;2023-03-17T05:58:00;1.45;;;0.95;;
53714;SDS011;39608;55.630;37.864;2023-03-17T06:03:04;3.28;;;0.80;;
53714;SDS011;39608;55.630;37.864;2023-03-17T06:08:06;4.15;;;0.80;;
53714;SDS011;39608;55.630;37.864;2023-03-17T06:13:10;1.00;;;0.90;;
53714;SDS011;39608;55.630;37.864;2023-03-17T06:18:12;1.40;;;0.85;;
53714;SDS011;39608;55.630;37.864;2023-03-17T06:23:14;2.40;;;0.90;;
53714;SDS011;39608;55.630;37.864;2023-03-17T06:28:19;2.25;;;1.15;;
53714;SDS011;39608;55.630;37.864;2023-03-17T06:33:21;2.05;;;0.90;;
53714;SDS011;39608;55.630;37.864;2023-03-17T06:38:24;2.30;;;0.93;;
53714;SDS011;39608;55.630;37.864;2023-03-17T06:43:30;2.65;;;1.15;;
53714;SDS011;39608;55.630;37.864;2023-03-17T06:48:32;1.30;;;0.90;;
53714;SDS011;39608;55.630;37.864;2023-03-17T06:53:34;2.45;;;1.00;;
53714;SDS011;39608;55.630;37.864;2023-03-17T06:58:38;2.88;;;1.00;;
53714;SDS011;39608;55.630;37.864;2023-03-17T07:03:41;5.03;;;1.17;;
53714;SDS011;39608;55.630;37.864;2023-03-17T07:08:43;1.73;;;1.05;;
53714;SDS011;39608;55.630;37.864;2023-03-17T07:13:47;4.45;;;0.95;;
53714;SDS011;39608;55.630;37.864;2023-03-17T07:18:48;1.90;;;1.25;;
53714;SDS011;39608;55.630;37.864;2023-03-17T07:23:52;1.17;;;1.00;;
53714;SDS011;39608;55.630;37.864;2023-03-17T07:28:56;1.67;;;0.90;;
53714;SDS011;39608;55.630;37.864;2023-03-17T07:34:00;2.78;;;0.90;;
53714;SDS011;39608;55.630;37.864;2023-03-17T07:39:02;1.05;;;0.80;;
53714;SDS011;39608;55.630;37.864;2023-03-17T07:44:05;2.80;;;1.30;;
53714;SDS011;39608;55.630;37.864;2023-03-17T07:49:09;2.30;;;1.17;;
53714;SDS011;39608;55.630;37.864;2023-03-17T07:54:12;6.25;;;1.10;;
53714;SDS011;39608;55.630;37.864;2023-03-17T07:59:16;1.85;;;1.00;;
53714;SDS011;39608;55.630;37.864;2023-03-17T08:04:20;3.15;;;1.00;;
53714;SDS011;39608;55.630;37.864;2023-03-17T08:09:21;1.13;;;0.98;;
53714;SDS011;39608;55.630;37.864;2023-03-17T08:14:25;4.78;;;1.30;;
53714;SDS011;39608;55.630;37.864;2023-03-17T08:19:27;3.47;;;1.70;;
53714;SDS011;39608;55.630;37.864;2023-03-17T08:24:29;2.28;;;1.30;;
53714;SDS011;39608;55.630;37.864;2023-03-17T08:29:33;2.97;;;1.23;;
53714;SDS011;39608;55.630;37.864;2023-03-17T08:34:35;2.97;;;1.27;;
53714;SDS011;39608;55.630;37.864;2023-03-17T08:39:37;0.88;;;0.80;;
53714;SDS011;39608;55.630;37.864;2023-03-17T08:44:41;2.10;;;1.10;;
53714;SDS011;39608;55.630;37.864;2023-03-17T08:49:43;2.42;;;1.33;;
53714;SDS011;39608;55.630;37.864;2023-03-17T08:54:45;1.75;;;1.30;;
53714;SDS011;39608;55.630;37.864;2023-03-17T08:59:50;1.98;;;1.00;;
53714;SDS011;39608;55.630;37.864;2023-03-17T09:04:52;1.80;;;1.00;;
53714;SDS011;39608;55.630;37.864;2023-03-17T09:09:54;3.22;;;1.35;;
53714;SDS011;39608;55.630;37.864;2023-03-17T09:14:57;2.58;;;1.45;;
53714;SDS011;39608;55.630;37.864;2023-03-17T09:20:01;2.17;;;0.93;;
53714;SDS011;39608;55.630;37.864;2023-03-17T09:25:06;8.18;;;1.27;;
53714;SDS011;39608;55.630;37.864;2023-03-17T09:30:10;3.30;;;1.42;;
53714;SDS011;39608;55.630;37.864;2023-03-17T09:35:13;3.10;;;1.38;;
53714;SDS011;39608;55.630;37.864;2023-03-17T09:40:16;2.08;;;1.15;;
53714;SDS011;39608;55.630;37.864;2023-03-17T09:45:29;1.33;;;1.20;;
53714;SDS011;39608;55.630;37.864;2023-03-17T09:50:36;2.33;;;1.17;;
53714;SDS011;39608;55.630;37.864;2023-03-17T09:55:43;2.95;;;1.33;;
53714;SDS011;39608;55.630;37.864;2023-03-17T10:00:52;2.83;;;1.08;;
53714;SDS011;39608;55.630;37.864;2023-03-17T10:05:56;1.48;;;0.90;;
53714;SDS011;39608;55.630;37.864;2023-03-17T10:11:04;2.58;;;0.68;;
53714;SDS011;39608;55.630;37.864;2023-03-17T10:16:16;1.13;;;0.60;;
53714;SDS011;39608;55.630;37.864;2023-03-17T10:21:21;2.47;;;0.90;;
53714;SDS011;39608;55.630;37.864;2023-03-17T10:26:29;1.92;;;1.27;;
53714;SDS011;39608;55.630;37.864;2023-03-17T10:31:35;1.80;;;0.80;;
53714;SDS011;39608;55.630;37.864;2023-03-17T10:36:40;3.78;;;1.20;;
53714;SDS011;39608;55.630;37.864;2023-03-17T10:41:47;1.80;;;0.80;;
53714;SDS011;39608;55.630;37.864;2023-03-17T10:46:56;1.63;;;0.90;;
53714;SDS011;39608;55.630;37.864;2023-03-17T10:51:58;1.65;;;0.90;;
53714;SDS011;39608;55.630;37.864;2023-03-17T10:57:01;1.58;;;0.88;;
53714;SDS011;39608;55.630;37.864;2023-03-17T11:02:17;1.20;;;0.88;;
53714;SDS011;39608;55.630;37.864;2023-03-17T11:07:26;1.23;;;0.80;;
53714;SDS011;39608;55.630;37.864;2023-03-17T11:12:37;0.80;;;0.80;;
53714;SDS011;39608;55.630;37.864;2023-03-17T11:17:44;1.13;;;0.90;;
53714;SDS011;39608;55.630;37.864;2023-03-17T11:22:53;1.67;;;1.35;;
53714;SDS011;39608;55.630;37.864;2023-03-17T11:28:05;2.38;;;0.90;;
53714;SDS011;39608;55.630;37.864;2023-03-17T11:33:20;1.23;;;0.88;;
53714;SDS011;39608;55.630;37.864;2023-03-17T11:38:33;1.08;;;0.98;;
53714;SDS011;39608;55.630;37.864;2023-03-17T11:43:40;0.77;;;0.63;;
53714;SDS011;39608;55.630;37.864;2023-03-17T11:48:56;1.08;;;0.90;;
53714;SDS011;39608;55.630;37.864;2023-03-17T11:54:06;0.70;;;0.70;;
53714;SDS011;39608;55.630;37.864;2023-03-17T11:59:16;0.95;;;0.73;;
53714;SDS011;39608;55.630;37.864;2023-03-17T12:04:28;1.85;;;0.90;;
53714;SDS011;39608;55.630;37.864;2023-03-17T12:09:36;1.55;;;0.80;;
53714;SDS011;39608;55.630;37.864;2023-03-17T12:14:42;1.10;;;1.00;;
53714;SDS011;39608;55.630;37.864;2023-03-17T12:19:57;4.43;;;1.10;;
53714;SDS011;39608;55.630;37.864;2023-03-17T12:25:08;2.58;;;1.20;;
53714;SDS011;39608;55.630;37.864;2023-03-17T12:30:20;1.88;;;1.20;;
53714;SDS011;39608;55.630;37.864;2023-03-17T12:35:31;2.47;;;1.42;;
53714;SDS011;39608;55.630;37.864;2023-03-17T12:40:35;4.95;;;1.40;;
53714;SDS011;39608;55.630;37.864;2023-03-17T12:45:51;3.78;;;1.13;;
53714;SDS011;39608;55.630;37.864;2023-03-17T12:51:18;3.53;;;1.55;;
53714;SDS011;39608;55.630;37.864;2023-03-17T12:56:42;2.25;;;1.27;;
53714;SDS011;39608;55.630;37.864;2023-03-17T13:01:53;2.58;;;1.40;;
53714;SDS011;39608;55.630;37.864;2023-03-17T13:07:01;2.05;;;1.23;;
53714;SDS011;39608;55.630;37.864;2023-03-17T13:17:43;1.17;;;1.08;;
53714;SDS011;39608;55.630;37.864;2023-03-17T13:23:01;1.80;;;1.10;;
53714;SDS011;39608;55.630;37.864;2023-03-17T13:28:16;2.42;;;1.23;;
53714;SDS011;39608;55.630;37.864;2023-03-17T13:33:26;2.33;;;1.05;;
53714;SDS011;39608;55.630;37.864;2023-03-17T13:38:39;2.15;;;1.20;;
53714;SDS011;39608;55.630;37.864;2023-03-17T13:43:55;2.58;;;1.25;;
53714;SDS011;39608;55.630;37.864;2023-03-17T13:49:21;2.58;;;1.38;;
53714;SDS011;39608;55.630;37.864;2023-03-17T13:54:33;1.50;;;1.20;;
53714;SDS011;39608;55.630;37.864;2023-03-17T13:59:52;1.55;;;1.10;;
53714;SDS011;39608;55.630;37.864;2023-03-17T14:05:04;3.63;;;1.10;;
53714;SDS011;39608;55.630;37.864;2023-03-17T14:10:13;1.17;;;1.08;;
53714;SDS011;39608;55.630;37.864;2023-03-17T14:15:19;1.30;;;1.00;;
53714;SDS011;39608;55.630;37.864;2023-03-17T14:20:27;2.35;;;1.40;;
53714;SDS011;39608;55.630;37.864;2023-03-17T14:25:32;2.95;;;1.40;;
53714;SDS011;39608;55.630;37.864;2023-03-17T14:30:36;1.95;;;1.25;;
53714;SDS011;39608;55.630;37.864;2023-03-17T14:35:40;1.20;;;1.10;;
53714;SDS011;39608;55.630;37.864;2023-03-17T14:40:45;0.82;;;0.75;;
53714;SDS011;39608;55.630;37.864;2023-03-17T14:45:48;0.98;;;0.88;;
53714;SDS011;39608;55.630;37.864;2023-03-17T14:50:52;2.00;;;0.90;;
53714;SDS011;39608;55.630;37.864;2023-03-17T14:55:57;2.13;;;1.13;;
53714;SDS011;39608;55.630;37.864;2023-03-17T15:01:01;1.80;;;0.90;;
53714;SDS011;39608;55.630;37.864;2023-03-17T15:06:06;0.75;;;0.75;;
53714;SDS011;39608;55.630;37.864;2023-03-17T15:11:24;0.90;;;0.90;;
53714;SDS011;39608;55.630;37.864;2023-03-17T15:16:28;3.13;;;0.98;;
53714;SDS011;39608;55.630;37.864;2023-03-17T15:21:36;1.57;;;0.90;;
53714;SDS011;39608;55.630;37.864;2023-03-17T15:26:41;1.73;;;1.08;;
53714;SDS011;39608;55.630;37.864;2023-03-17T15:31:43;3.13;;;0.90;;
53714;SDS011;39608;55.630;37.864;2023-03-17T15:36:45;0.77;;;0.75;;
53714;SDS011;39608;55.630;37.864;2023-03-17T15:41:48;1.10;;;0.82;;
53714;SDS011;39608;55.630;37.864;2023-03-17T15:46:50;2.42;;;1.00;;
53714;SDS011;39608;55.630;37.864;2023-03-17T15:51:53;0.80;;;0.80;;
53714;SDS011;39608;55.630;37.864;2023-03-17T15:56:56;1.70;;;1.13;;
53714;SDS011;39608;55.630;37.864;2023-03-17T16:01:58;1.77;;;1.00;;
53714;SDS011;39608;55.630;37.864;2023-03-17T16:07:01;1.45;;;1.00;;
53714;SDS011;39608;55.630;37.864;2023-03-17T16:12:07;4.95;;;1.25;;
53714;SDS011;39608;55.630;37.864;2023-03-17T16:17:14;1.92;;;0.90;;
53714;SDS011;39608;55.630;37.864;2023-03-17T16:22:27;1.63;;;1.00;;
53714;SDS011;39608;55.630;37.864;2023-03-17T16:27:38;1.60;;;1.38;;
53714;SDS011;39608;55.630;37.864;2023-03-17T16:32:40;1.23;;;0.70;;
53714;SDS011;39608;55.630;37.864;2023-03-17T16:37:42;1.85;;;1.30;;
53714;SDS011;39608;55.630;37.864;2023-03-17T16:42:48;2.83;;;1.25;;
53714;SDS011;39608;55.630;37.864;2023-03-17T16:47:54;4.25;;;1.58;;
53714;SDS011;39608;55.630;37.864;2023-03-17T16:52:56;1.45;;;0.93;;
53714;SDS011;39608;55.630;37.864;2023-03-17T16:58:02;2.20;;;0.73;;
53714;SDS011;39608;55.630;37.864;2023-03-17T17:03:08;1.70;;;0.85;;
53714;SDS011;39608;55.630;37.864;2023-03-17T17:08:10;1.15;;;0.88;;
53714;SDS011;39608;55.630;37.864;2023-03-17T17:13:14;1.17;;;1.00;;
53714;SDS011;39608;55.630;37.864;2023-03-17T17:18:17;2.58;;;1.15;;
53714;SDS011;39608;55.630;37.864;2023-03-17T17:23:21;5.07;;;1.60;;
53714;SDS011;39608;55.630;37.864;2023-03-17T17:28:26;1.98;;;1.25;;
53714;SDS011;39608;55.630;37.864;2023-03-17T17:33:29;1.80;;;1.33;;
53714;SDS011;39608;55.630;37.864;2023-03-17T17:38:31;3.05;;;1.33;;
53714;SDS011;39608;55.630;37.864;2023-03-17T17:43:35;3.67;;;1.63;;
53714;SDS011;39608;55.630;37.864;2023-03-17T17:48:37;1.80;;;1.38;;
53714;SDS011;39608;55.630;37.864;2023-03-17T17:53:39;3.28;;;1.35;;
53714;SDS011;39608;55.630;37.864;2023-03-17T17:58:43;3.05;;;1.58;;
53714;SDS011;39608;55.630;37.864;2023-03-17T18:03:46;2.88;;;1.25;;
53714;SDS011;39608;55.630;37.864;2023-03-17T18:08:48;3.58;;;1.33;;
53714;SDS011;39608;55.630;37.864;2023-03-17T18:13:52;1.67;;;1.40;;
53714;SDS011;39608;55.630;37.864;2023-03-17T18:18:54;3.63;;;2.00;;
53714;SDS011;39608;55.630;37.864;2023-03-17T18:23:57;2.58;;;1.70;;
53714;SDS011;39608;55.630;37.864;2023-03-17T18:29:00;2.25;;;1.33;;
53714;SDS011;39608;55.630;37.864;2023-03-17T18:34:03;1.90;;;1.38;;
53714;SDS011;39608;55.630;37.864;2023-03-17T18:39:07;3.08;;;1.55;;
53714;SDS011;39608;55.630;37.864;2023-03-17T18:44:10;4.53;;;1.92;;
53714;SDS011;39608;55.630;37.864;2023-03-17T18:49:12;4.03;;;1.80;;
53714;SDS011;39608;55.630;37.864;2023-03-17T18:54:14;4.50;;;1.30;;
53714;SDS011;39608;55.630;37.864;2023-03-17T18:59:21;4.43;;;1.88;;
53714;SDS011;39608;55.630;37.864;2023-03-17T19:04:23;10.32;;;1.92;;
53714;SDS011;39608;55.630;37.864;2023-03-17T19:09:25;3.45;;;1.75;;
53714;SDS011;39608;55.630;37.864;2023-03-17T19:14:28;2.72;;;1.92;;
53714;SDS011;39608;55.630;37.864;2023-03-17T19:19:32;4.00;;;1.55;;
53714;SDS011;39608;55.630;37.864;2023-03-17T19:24:35;2.17;;;1.52;;
53714;SDS011;39608;55.630;37.864;2023-03-17T19:29:38;3.72;;;1.55;;
53714;SDS011;39608;55.630;37.864;2023-03-17T19:34:40;3.83;;;1.77;;
53714;SDS011;39608;55.630;37.864;2023-03-17T19:39:42;5.10;;;2.00;;
53714;SDS011;39608;55.630;37.864;2023-03-17T19:44:49;3.55;;;1.45;;
53714;SDS011;39608;55.630;37.864;2023-03-17T19:49:51;8.00;;;1.80;;
53714;SDS011;39608;55.630;37.864;2023-03-17T19:54:54;5.70;;;1.80;;
53714;SDS011;39608;55.630;37.864;2023-03-17T19:59:57;2.97;;;1.70;;
53714;SDS011;39608;55.630;37.864;2023-03-17T20:04:59;9.52;;;2.30;;
53714;SDS011;39608;55.630;37.864;2023-03-17T20:10:03;2.58;;;1.77;;
53714;SDS011;39608;55.630;37.864;2023-03-17T20:15:08;3.95;;;2.42;;
53714;SDS011;39608;55.630;37.864;2023-03-17T20:20:12;6.13;;;1.65;;
53714;SDS011;39608;55.630;37.864;2023-03-17T20:25:15;4.65;;;2.00;;
53714;SDS011;39608;55.630;37.864;2023-03-17T20:30:19;2.75;;;1.48;;
53714;SDS011;39608;55.630;37.864;2023-03-17T20:35:21;3.63;;;1.50;;
53714;SDS011;39608;55.630;37.864;2023-03-17T20:40:23;4.82;;;1.98;;
53714;SDS011;39608;55.630;37.864;2023-03-17T20:45:27;12.68;;;1.63;;
53714;SDS011;39608;55.630;37.864;2023-03-17T20:50:37;3.38;;;1.50;;
53714;SDS011;39608;55.630;37.864;2023-03-17T20:55:47;2.30;;;1.38;;
53714;SDS011;39608;55.630;37.864;2023-03-17T21:00:51;5.75;;;1.73;;
53714;SDS011;39608;55.630;37.864;2023-03-17T21:05:53;3.38;;;1.70;;
53714;SDS011;39608;55.630;37.864;2023-03-17T21:10:55;2.88;;;1.52;;
53714;SDS011;39608;55.630;37.864;2023-03-17T21:15:59;5.28;;;1.83;;
53714;SDS011;39608;55.630;37.864;2023-03-17T21:21:01;9.98;;;1.85;;
53714;SDS011;39608;55.630;37.864;2023-03-17T21:26:04;2.42;;;1.20;;
53714;SDS011;39608;55.630;37.864;2023-03-17T21:31:08;2.05;;;1.55;;
53714;SDS011;39608;55.630;37.864;2023-03-17T21:36:11;4.88;;;1.20;;
53714;SDS011;39608;55.630;37.864;2023-03-17T21:41:20;6.20;;;1.35;;
53714;SDS011;39608;55.630;37.864;2023-03-17T21:46:25;3.85;;;1.83;;
53714;SDS011;39608;55.630;37.864;2023-03-17T21:51:27;2.40;;;1.35;;
53714;SDS011;39608;55.630;37.864;2023-03-17T21:56:29;4.50;;;1.40;;
53714;SDS011;39608;55.630;37.864;2023-03-17T22:01:33;1.88;;;1.30;;
53714;SDS011;39608;55.630;37.864;2023-03-17T22:06:35;1.35;;;1.23;;
53714;SDS011;39608;55.630;37.864;2023-03-17T22:11:37;4.97;;;1.63;;
53714;SDS011;39608;55.630;37.864;2023-03-17T22:16:40;3.97;;;1.85;;
53714;SDS011;39608;55.630;37.864;2023-03-17T22:21:42;2.47;;;1.60;;
53714;SDS011;39608;55.630;37.864;2023-03-17T22:26:44;3.25;;;1.65;;
53714;SDS011;39608;55.630;37.864;2023-03-17T22:31:48;2.70;;;1.63;;
53714;SDS011;39608;55.630;37.864;2023-03-17T22:36:51;2.95;;;1.35;;
53714;SDS011;39608;55.630;37.864;2023-03-17T22:41:53;3.22;;;1.55;;
53714;SDS011;39608;55.630;37.864;2023-03-17T22:46:57;1.52;;;1.30;;
53714;SDS011;39608;55.630;37.864;2023-03-17T22:51:58;4.15;;;1.30;;
53714;SDS011;39608;55.630;37.864;2023-03-17T22:57:00;3.15;;;1.30;;
53714;SDS011;39608;55.630;37.864;2023-03-17T23:02:04;1.77;;;1.30;;
53714;SDS011;39608;55.630;37.864;2023-03-17T23:07:08;3.05;;;1.20;;
53714;SDS011;39608;55.630;37.864;2023-03-17T23:12:10;2.35;;;1.17;;
53714;SDS011;39608;55.630;37.864;2023-03-17T23:17:14;3.15;;;1.38;;
53714;SDS011;39608;55.630;37.864;2023-03-17T23:22:16;3.35;;;1.17;;
53714;SDS011;39608;55.630;37.864;2023-03-17T23:27:18;2.05;;;0.85;;
53714;SDS011;39608;55.630;37.864;2023-03-17T23:32:21;3.60;;;1.73;;
53714;SDS011;39608;55.630;37.864;2023-03-17T23:37:26;2.33;;;1.20;;
53714;SDS011;39608;55.630;37.864;2023-03-17T23:42:28;1.35;;;0.90;;
53714;SDS011;39608;55.630;37.864;2023-03-17T23:47:31;2.70;;;0.90;;
53714;SDS011;39608;55.630;37.864;2023-03-17T23:52:33;2.47;;;1.17;;
53714;SDS011;39608;55.630;37.864;2023-03-17T23:57:35;2.78;;;1.35;;
